Time;durP1;ratioP1;P1;durP2;ratioP2;P2;SDS_P1;SDS_P2;PMS_P1;PMS_P2;Temp;Humidity;BMP_temperature;BMP_pressure;BME280_temperature;BME280_humidity;BME280_pressure;Samples;Min_cycle;Max_cycle;Signal;HPM_P1;HPM_P2
2023/03/07 00:00:30;;;;;;;3.92;2.00;;;;;;;;;;4931491;28;20061;-64
2023/03/07 00:04:10;;;;;;;5.18;2.08;;;;;;;;;;4929822;28;20500;-66
2023/03/07 00:07:50;;;;;;;3.85;2.20;;;;;;;;;;4927365;28;20055;-64
2023/03/07 00:11:31;;;;;;;4.15;1.80;;;;;;;;;;4927490;28;20853;-63
2023/03/07 00:15:11;;;;;;;3.72;1.88;;;;;;;;;;4930790;28;20066;-65
2023/03/07 00:18:53;;;;;;;4.57;1.75;;;;;;;;;;4931173;28;20043;-64
2023/03/07 00:22:35;;;;;;;8.23;1.70;;;;;;;;;;4930889;28;20059;-71
2023/03/07 00:26:22;;;;;;;3.72;1.70;;;;;;;;;;4934207;28;20078;-67
2023/03/07 00:30:03;;;;;;;3.03;1.60;;;;;;;;;;4934010;28;20043;-66
2023/03/07 00:33:42;;;;;;;5.70;1.73;;;;;;;;;;4929819;28;20162;-64
2023/03/07 00:37:23;;;;;;;4.80;1.98;;;;;;;;;;4928626;28;20055;-65
2023/03/07 00:41:03;;;;;;;4.90;2.10;;;;;;;;;;4928242;28;20055;-65
2023/03/07 00:44:43;;;;;;;4.60;2.00;;;;;;;;;;4927847;28;20074;-64
2023/03/07 00:48:25;;;;;;;3.85;1.90;;;;;;;;;;4936158;28;20039;-64
2023/03/07 00:52:06;;;;;;;4.18;1.60;;;;;;;;;;4924002;28;20051;-64
2023/03/07 00:55:47;;;;;;;5.97;1.58;;;;;;;;;;4929584;28;20087;-66
2023/03/07 00:59:28;;;;;;;3.33;1.63;;;;;;;;;;4929016;28;20091;-67
2023/03/07 01:03:09;;;;;;;4.82;1.70;;;;;;;;;;4930049;28;20043;-64
2023/03/07 01:06:50;;;;;;;2.95;1.60;;;;;;;;;;4937112;28;20586;-65
2023/03/07 01:10:32;;;;;;;3.13;1.45;;;;;;;;;;4930318;28;20051;-65
2023/03/07 01:14:11;;;;;;;2.08;1.50;;;;;;;;;;4930598;28;20129;-64
2023/03/07 01:17:51;;;;;;;5.70;1.50;;;;;;;;;;4934376;28;20071;-64
2023/03/07 01:21:38;;;;;;;3.95;1.80;;;;;;;;;;4932618;28;20054;-64
2023/03/07 01:25:18;;;;;;;3.38;1.58;;;;;;;;;;4932917;28;20055;-62
2023/03/07 01:28:58;;;;;;;5.57;1.85;;;;;;;;;;4930850;28;20070;-63
2023/03/07 01:32:39;;;;;;;4.53;2.10;;;;;;;;;;4932475;28;20066;-64
2023/03/07 01:36:21;;;;;;;5.57;1.80;;;;;;;;;;4932643;28;20047;-65
2023/03/07 01:40:01;;;;;;;4.40;1.58;;;;;;;;;;4936430;28;20398;-65
2023/03/07 01:43:20;;;;;;;6.93;1.83;;;;;;;;;;4933131;28;20075;-66
2023/03/07 01:46:55;;;;;;;5.07;2.20;;;;;;;;;;4936249;28;20039;-67
2023/03/07 01:50:36;;;;;;;2.92;1.60;;;;;;;;;;4938821;28;20087;-65
2023/03/07 01:54:18;;;;;;;5.30;2.30;;;;;;;;;;4935460;28;21908;-64
2023/03/07 01:58:00;;;;;;;3.33;1.83;;;;;;;;;;4934558;28;20472;-63
2023/03/07 02:01:40;;;;;;;2.67;1.80;;;;;;;;;;4933106;28;20419;-64
2023/03/07 02:05:32;;;;;;;5.40;2.35;;;;;;;;;;4933872;28;20075;-66
2023/03/07 02:09:14;;;;;;;5.85;2.25;;;;;;;;;;4928039;28;20550;-64
2023/03/07 02:12:53;;;;;;;5.78;2.00;;;;;;;;;;4928424;28;20098;-66
2023/03/07 02:16:33;;;;;;;5.32;2.00;;;;;;;;;;4929074;28;20057;-64
2023/03/07 02:20:07;;;;;;;5.32;1.88;;;;;;;;;;4928500;28;20451;-64
2023/03/07 02:23:46;;;;;;;3.95;1.70;;;;;;;;;;4929768;28;20051;-65
2023/03/07 02:27:26;;;;;;;5.18;2.20;;;;;;;;;;4930384;28;20050;-64
2023/03/07 02:31:12;;;;;;;5.45;1.80;;;;;;;;;;4930154;28;20473;-63
2023/03/07 02:34:56;;;;;;;8.43;3.03;;;;;;;;;;4930970;28;20047;-68
2023/03/07 02:38:36;;;;;;;5.63;2.05;;;;;;;;;;4931622;28;20478;-67
2023/03/07 02:42:16;;;;;;;5.43;2.00;;;;;;;;;;4929237;28;20047;-64
2023/03/07 02:45:57;;;;;;;5.63;2.00;;;;;;;;;;4930904;28;20079;-66
2023/03/07 02:49:37;;;;;;;7.53;2.15;;;;;;;;;;4935180;28;20051;-64
2023/03/07 02:53:18;;;;;;;7.10;2.05;;;;;;;;;;4935705;28;20444;-64
2023/03/07 02:56:59;;;;;;;6.00;2.15;;;;;;;;;;4931133;28;20043;-64
2023/03/07 03:00:40;;;;;;;5.25;2.05;;;;;;;;;;4930323;28;20055;-65
2023/03/07 03:04:22;;;;;;;5.20;1.83;;;;;;;;;;4929968;28;21078;-63
2023/03/07 03:08:02;;;;;;;4.55;2.15;;;;;;;;;;4929725;28;20097;-63
2023/03/07 03:11:44;;;;;;;6.13;2.42;;;;;;;;;;4932477;28;20043;-65
2023/03/07 03:15:25;;;;;;;4.20;2.15;;;;;;;;;;4931053;28;20051;-63
2023/03/07 03:19:08;;;;;;;5.75;2.28;;;;;;;;;;4929378;28;20061;-65
2023/03/07 03:22:48;;;;;;;5.07;2.40;;;;;;;;;;4929788;28;21059;-62
2023/03/07 03:26:41;;;;;;;4.85;2.38;;;;;;;;;;4932142;28;20043;-66
2023/03/07 03:30:37;;;;;;;4.90;2.10;;;;;;;;;;4932554;28;20054;-64
2023/03/07 03:34:17;;;;;;;5.75;1.90;;;;;;;;;;4928371;28;20138;-64
2023/03/07 03:37:57;;;;;;;5.30;2.17;;;;;;;;;;4928571;28;20063;-69
2023/03/07 03:41:37;;;;;;;6.93;3.58;;;;;;;;;;4928345;28;20055;-65
2023/03/07 03:45:18;;;;;;;8.15;3.30;;;;;;;;;;4930180;28;20086;-64
2023/03/07 03:48:58;;;;;;;5.72;3.00;;;;;;;;;;4936220;28;20158;-66
2023/03/07 03:52:38;;;;;;;6.60;2.50;;;;;;;;;;4933099;28;21148;-67
2023/03/07 03:56:24;;;;;;;5.20;2.67;;;;;;;;;;4930200;28;20050;-64
2023/03/07 04:00:08;;;;;;;7.25;2.55;;;;;;;;;;4929009;28;20166;-65
2023/03/07 04:03:48;;;;;;;3.53;1.90;;;;;;;;;;4927692;28;20154;-65
2023/03/07 04:07:28;;;;;;;3.92;2.13;;;;;;;;;;4926446;28;20408;-64
2023/03/07 04:11:08;;;;;;;5.57;1.92;;;;;;;;;;4930325;28;20058;-63
2023/03/07 04:14:48;;;;;;;3.47;1.85;;;;;;;;;;4926572;28;20055;-63
2023/03/07 04:18:29;;;;;;;4.82;2.00;;;;;;;;;;4926792;28;20054;-64
2023/03/07 04:22:09;;;;;;;7.03;1.80;;;;;;;;;;4929317;28;20460;-63
2023/03/07 04:25:49;;;;;;;4.03;1.80;;;;;;;;;;4927565;28;20055;-64
2023/03/07 04:29:30;;;;;;;4.63;2.03;;;;;;;;;;4927841;28;20062;-65
2023/03/07 04:33:11;;;;;;;9.02;2.17;;;;;;;;;;4929386;28;20055;-64
2023/03/07 04:36:52;;;;;;;4.30;2.10;;;;;;;;;;4926952;28;20140;-64
2023/03/07 04:40:32;;;;;;;6.88;1.88;;;;;;;;;;4928750;28;20051;-63
2023/03/07 04:44:15;;;;;;;4.32;1.60;;;;;;;;;;4929218;28;20058;-63
2023/03/07 04:47:58;;;;;;;6.28;1.80;;;;;;;;;;4935197;28;21211;-63
2023/03/07 04:51:38;;;;;;;2.63;1.60;;;;;;;;;;4928778;28;20118;-63
2023/03/07 04:55:18;;;;;;;4.30;1.80;;;;;;;;;;4927176;28;20484;-64
2023/03/07 04:58:59;;;;;;;3.33;1.77;;;;;;;;;;4928075;28;20054;-63
2023/03/07 05:02:39;;;;;;;3.40;1.60;;;;;;;;;;4928453;28;20057;-65
2023/03/07 05:06:19;;;;;;;4.32;1.42;;;;;;;;;;4930232;28;20467;-66
2023/03/07 05:10:01;;;;;;;4.18;1.73;;;;;;;;;;4927150;28;20078;-63
2023/03/07 05:13:42;;;;;;;4.80;1.55;;;;;;;;;;4926869;28;20518;-64
2023/03/07 05:17:22;;;;;;;2.97;1.45;;;;;;;;;;4927518;28;20054;-64
2023/03/07 05:21:02;;;;;;;2.92;1.40;;;;;;;;;;4927587;28;20411;-66
2023/03/07 05:24:43;;;;;;;1.55;1.23;;;;;;;;;;4930627;28;20130;-62
2023/03/07 05:28:23;;;;;;;7.32;1.60;;;;;;;;;;4931573;28;20147;-65
2023/03/07 05:32:03;;;;;;;4.10;1.55;;;;;;;;;;4931371;28;20496;-66
2023/03/07 05:35:04;;;;;;;5.45;1.50;;;;;;;;;;4929655;28;20059;-65
2023/03/07 05:37:30;;;;;;;4.10;1.42;;;;;;;;;;4934854;28;20059;-63
2023/03/07 05:39:57;;;;;;;2.13;1.33;;;;;;;;;;4930943;28;20062;-64
2023/03/07 05:42:23;;;;;;;7.15;1.80;;;;;;;;;;4932194;28;20070;-62
2023/03/07 05:44:49;;;;;;;1.65;1.20;;;;;;;;;;4930626;28;20055;-63
2023/03/07 05:47:15;;;;;;;3.33;1.20;;;;;;;;;;4934348;28;20142;-64
2023/03/07 05:49:41;;;;;;;3.10;1.27;;;;;;;;;;4934563;28;20043;-65
2023/03/07 05:52:08;;;;;;;4.88;1.73;;;;;;;;;;4932828;28;20051;-64
2023/03/07 05:54:35;;;;;;;3.75;1.40;;;;;;;;;;4930851;28;20048;-64
2023/03/07 05:57:04;;;;;;;3.88;1.70;;;;;;;;;;4931580;28;20118;-64
2023/03/07 05:59:29;;;;;;;4.72;1.30;;;;;;;;;;4929875;28;20494;-66
2023/03/07 06:01:57;;;;;;;5.72;1.50;;;;;;;;;;4932223;28;20066;-64
2023/03/07 06:04:23;;;;;;;3.08;1.40;;;;;;;;;;4932315;28;20067;-64
2023/03/07 06:06:50;;;;;;;3.28;1.20;;;;;;;;;;4932220;28;20157;-63
2023/03/07 06:09:15;;;;;;;3.28;1.45;;;;;;;;;;4915367;28;20068;-67
2023/03/07 06:11:41;;;;;;;4.05;1.60;;;;;;;;;;4932166;28;20059;-64
2023/03/07 06:14:08;;;;;;;5.55;1.95;;;;;;;;;;4932893;28;20491;-64
2023/03/07 06:16:34;;;;;;;4.35;1.45;;;;;;;;;;4932052;28;20066;-64
2023/03/07 06:19:01;;;;;;;3.20;1.50;;;;;;;;;;4933241;28;20047;-64
2023/03/07 06:22:07;;;;;;;5.13;1.60;;;;;;;;;;4930849;28;20055;-66
2023/03/07 06:25:50;;;;;;;5.05;1.52;;;;;;;;;;4931101;28;20061;-68
2023/03/07 06:29:30;;;;;;;3.65;1.40;;;;;;;;;;4932896;28;20055;-66
2023/03/07 06:33:10;;;;;;;2.78;1.20;;;;;;;;;;4934167;28;20178;-64
2023/03/07 06:36:51;;;;;;;2.80;1.20;;;;;;;;;;4933288;28;20450;-65
2023/03/07 06:40:32;;;;;;;3.33;1.40;;;;;;;;;;4934062;28;20050;-66
2023/03/07 06:44:13;;;;;;;3.38;1.38;;;;;;;;;;4932697;28;20105;-65
2023/03/07 06:47:53;;;;;;;2.60;1.20;;;;;;;;;;4929223;28;20356;-63
2023/03/07 06:51:34;;;;;;;2.33;1.20;;;;;;;;;;4940081;28;20078;-64
2023/03/07 06:55:14;;;;;;;3.97;1.45;;;;;;;;;;4929985;28;20063;-65
2023/03/07 06:58:17;;;;;;;4.10;1.60;;;;;;;;;;4932446;28;20909;-65
2023/03/07 07:01:23;;;;;;;9.93;1.23;;;;;;;;;;4936404;28;20043;-64
2023/03/07 07:05:03;;;;;;;4.40;1.30;;;;;;;;;;4933335;28;20071;-66
2023/03/07 07:08:44;;;;;;;5.60;1.23;;;;;;;;;;4929046;28;20058;-65
2023/03/07 07:12:25;;;;;;;1.58;0.90;;;;;;;;;;4930024;28;20043;-67
2023/03/07 07:16:06;;;;;;;2.17;1.23;;;;;;;;;;4931451;28;20133;-63
2023/03/07 07:19:47;;;;;;;2.65;1.40;;;;;;;;;;4931250;28;20109;-64
2023/03/07 07:23:27;;;;;;;5.05;1.30;;;;;;;;;;4930776;28;20061;-65
2023/03/07 07:27:07;;;;;;;1.75;1.17;;;;;;;;;;4929959;28;20062;-69
2023/03/07 07:30:28;;;;;;;1.35;1.10;;;;;;;;;;4929679;28;20063;-64
2023/03/07 07:34:09;;;;;;;4.32;1.35;;;;;;;;;;4929289;28;20274;-67
2023/03/07 07:37:49;;;;;;;2.35;1.10;;;;;;;;;;4928298;28;20859;-65
2023/03/07 07:41:29;;;;;;;4.00;1.10;;;;;;;;;;4931092;28;20062;-66
2023/03/07 07:45:10;;;;;;;4.78;1.50;;;;;;;;;;4930094;28;20475;-64
2023/03/07 07:48:50;;;;;;;4.32;1.20;;;;;;;;;;4935738;28;20338;-63
2023/03/07 07:52:30;;;;;;;3.60;1.30;;;;;;;;;;4924546;28;20419;-63
2023/03/07 07:56:14;;;;;;;2.80;1.40;;;;;;;;;;4929076;28;20135;-64
2023/03/07 07:59:54;;;;;;;5.35;1.30;;;;;;;;;;4926303;28;20988;-63
2023/03/07 08:03:34;;;;;;;5.32;1.60;;;;;;;;;;4927549;28;20304;-64
2023/03/07 08:07:15;;;;;;;6.88;1.40;;;;;;;;;;4930784;28;20046;-64
2023/03/07 08:10:55;;;;;;;2.88;1.30;;;;;;;;;;4927059;28;20051;-63
2023/03/07 08:14:37;;;;;;;3.28;1.80;;;;;;;;;;4929703;28;20143;-63
2023/03/07 08:18:18;;;;;;;4.70;1.60;;;;;;;;;;4927529;28;20062;-63
2023/03/07 08:21:58;;;;;;;8.13;1.50;;;;;;;;;;4927975;28;20066;-66
2023/03/07 08:25:39;;;;;;;9.40;1.63;;;;;;;;;;4928986;28;20047;-65
2023/03/07 08:29:19;;;;;;;3.70;1.10;;;;;;;;;;4930051;28;20514;-65
2023/03/07 08:32:59;;;;;;;10.60;1.70;;;;;;;;;;4927445;28;20142;-64
2023/03/07 08:36:40;;;;;;;1.65;1.27;;;;;;;;;;4928162;28;20559;-63
2023/03/07 08:40:20;;;;;;;3.97;1.40;;;;;;;;;;4928978;28;20082;-62
2023/03/07 08:44:01;;;;;;;2.55;1.27;;;;;;;;;;4927319;28;20362;-65
2023/03/07 08:47:02;;;;;;;4.30;1.55;;;;;;;;;;4929801;28;20043;-64
2023/03/07 08:49:30;;;;;;;3.50;1.13;;;;;;;;;;4937382;28;20054;-63
2023/03/07 08:51:55;;;;;;;1.40;0.98;;;;;;;;;;4933841;28;20061;-64
2023/03/07 08:54:22;;;;;;;2.95;1.25;;;;;;;;;;4929189;28;20507;-67
2023/03/07 08:56:48;;;;;;;5.10;1.85;;;;;;;;;;4932435;28;20075;-63
2023/03/07 08:59:15;;;;;;;4.10;1.40;;;;;;;;;;4933085;28;20059;-63
2023/03/07 09:01:41;;;;;;;6.15;1.92;;;;;;;;;;4929909;28;20495;-64
2023/03/07 09:04:07;;;;;;;7.47;1.13;;;;;;;;;;4928857;28;20053;-63
2023/03/07 09:06:33;;;;;;;7.57;2.15;;;;;;;;;;4928945;28;20051;-66
2023/03/07 09:08:59;;;;;;;3.83;1.20;;;;;;;;;;4929817;28;20467;-65
2023/03/07 09:11:25;;;;;;;5.60;1.35;;;;;;;;;;4929673;28;20137;-64
2023/03/07 09:13:51;;;;;;;4.05;1.02;;;;;;;;;;4927301;28;20632;-64
2023/03/07 09:16:18;;;;;;;3.15;1.30;;;;;;;;;;4930974;28;20055;-65
2023/03/07 09:18:44;;;;;;;3.42;1.08;;;;;;;;;;4926572;28;20075;-63
2023/03/07 09:21:09;;;;;;;4.22;1.35;;;;;;;;;;4933409;28;20123;-64
2023/03/07 09:23:36;;;;;;;2.90;1.20;;;;;;;;;;4919968;28;20059;-65
2023/03/07 09:26:04;;;;;;;3.35;1.20;;;;;;;;;;4934342;28;20555;-63
2023/03/07 09:28:31;;;;;;;4.72;1.33;;;;;;;;;;4935347;28;20055;-65
2023/03/07 09:30:57;;;;;;;4.95;1.45;;;;;;;;;;4932331;28;20109;-65
2023/03/07 09:33:23;;;;;;;3.70;1.40;;;;;;;;;;4930448;28;20062;-63
2023/03/07 09:35:49;;;;;;;2.78;1.33;;;;;;;;;;4933285;28;20078;-63
2023/03/07 09:38:16;;;;;;;3.97;1.30;;;;;;;;;;4933428;28;20209;-63
2023/03/07 09:40:45;;;;;;;5.18;1.17;;;;;;;;;;4916990;28;20054;-65
2023/03/07 09:43:25;;;;;;;4.03;1.20;;;;;;;;;;4914187;28;20055;-65
2023/03/07 09:46:15;;;;;;;7.65;1.63;;;;;;;;;;4932472;28;20106;-63
2023/03/07 09:49:02;;;;;;;4.05;1.05;;;;;;;;;;4934810;28;20059;-66
2023/03/07 09:51:39;;;;;;;2.17;1.10;;;;;;;;;;4937724;28;20050;-64
2023/03/07 09:54:15;;;;;;;2.17;1.33;;;;;;;;;;4929648;28;20582;-65
2023/03/07 09:56:48;;;;;;;3.40;1.20;;;;;;;;;;4930469;28;20047;-63
2023/03/07 09:59:31;;;;;;;2.65;1.05;;;;;;;;;;4929813;28;20051;-63
2023/03/07 10:02:13;;;;;;;3.72;1.30;;;;;;;;;;4931515;28;20111;-63
2023/03/07 10:04:50;;;;;;;4.65;1.40;;;;;;;;;;4929735;28;20122;-65
2023/03/07 10:07:18;;;;;;;4.40;1.30;;;;;;;;;;4931262;28;20662;-63
2023/03/07 10:09:52;;;;;;;5.82;1.25;;;;;;;;;;4934490;28;20243;-66
2023/03/07 10:12:56;;;;;;;3.97;1.10;;;;;;;;;;4931629;28;20671;-64
2023/03/07 10:15:47;;;;;;;4.72;1.13;;;;;;;;;;4932690;28;20055;-63
2023/03/07 10:18:15;;;;;;;6.07;1.00;;;;;;;;;;4943773;28;20062;-63
2023/03/07 10:21:03;;;;;;;9.43;1.23;;;;;;;;;;4939851;28;20078;-68
2023/03/07 10:23:50;;;;;;;4.63;1.08;;;;;;;;;;4931216;28;20054;-65
2023/03/07 10:26:57;;;;;;;3.53;1.23;;;;;;;;;;4929589;28;20078;-66
2023/03/07 10:29:25;;;;;;;4.20;1.20;;;;;;;;;;4933212;28;20046;-63
2023/03/07 10:32:01;;;;;;;3.05;1.20;;;;;;;;;;4915665;28;20473;-65
2023/03/07 10:34:29;;;;;;;7.82;1.52;;;;;;;;;;4927387;28;20506;-67
2023/03/07 10:37:26;;;;;;;3.28;1.08;;;;;;;;;;4932370;28;20059;-63
2023/03/07 10:39:54;;;;;;;4.28;1.20;;;;;;;;;;4932530;28;20381;-62
2023/03/07 10:42:23;;;;;;;5.75;1.52;;;;;;;;;;4933962;28;20070;-65
2023/03/07 10:44:51;;;;;;;12.45;1.27;;;;;;;;;;4930393;28;20059;-64
2023/03/07 10:47:25;;;;;;;7.63;1.10;;;;;;;;;;4931150;28;20130;-64
2023/03/07 10:50:03;;;;;;;2.25;0.90;;;;;;;;;;4937649;28;20059;-65
2023/03/07 10:52:43;;;;;;;7.32;1.40;;;;;;;;;;4926857;28;20058;-64
2023/03/07 10:55:37;;;;;;;5.78;0.93;;;;;;;;;;4929005;28;20401;-65
2023/03/07 10:58:19;;;;;;;9.02;1.23;;;;;;;;;;4928414;28;20059;-64
2023/03/07 11:01:10;;;;;;;4.88;1.20;;;;;;;;;;4930484;28;20512;-66
2023/03/07 11:03:50;;;;;;;12.82;1.23;;;;;;;;;;4934327;28;20102;-62
2023/03/07 11:06:32;;;;;;;14.18;1.60;;;;;;;;;;4931753;28;20533;-66
2023/03/07 11:09:18;;;;;;;10.75;1.70;;;;;;;;;;4929663;28;20045;-66
2023/03/07 11:11:50;;;;;;;11.10;1.20;;;;;;;;;;4929805;28;20068;-64
2023/03/07 11:14:16;;;;;;;6.65;1.20;;;;;;;;;;4928913;28;20521;-68
2023/03/07 11:17:01;;;;;;;12.80;1.35;;;;;;;;;;4929731;28;20616;-64
2023/03/07 11:19:44;;;;;;;7.47;1.10;;;;;;;;;;4930384;28;20129;-65
2023/03/07 11:22:19;;;;;;;11.07;1.00;;;;;;;;;;4931351;28;20051;-65
2023/03/07 11:25:00;;;;;;;10.35;1.08;;;;;;;;;;4913737;28;20083;-65
2023/03/07 11:27:38;;;;;;;15.80;1.20;;;;;;;;;;4931018;28;20436;-65
2023/03/07 11:30:34;;;;;;;11.57;1.33;;;;;;;;;;4930675;28;20055;-65
2023/03/07 11:34:05;;;;;;;4.43;1.20;;;;;;;;;;4929272;28;20147;-66
2023/03/07 11:37:27;;;;;;;11.27;1.00;;;;;;;;;;4931502;28;20054;-64
2023/03/07 11:41:10;;;;;;;6.38;1.20;;;;;;;;;;4935590;28;20102;-64
2023/03/07 11:44:59;;;;;;;10.57;1.13;;;;;;;;;;4932956;28;20077;-63
2023/03/07 11:48:41;;;;;;;8.88;1.58;;;;;;;;;;4929593;28;20055;-66
2023/03/07 11:52:00;;;;;;;7.53;1.33;;;;;;;;;;4928999;28;20039;-67
2023/03/07 11:55:19;;;;;;;7.28;1.30;;;;;;;;;;4927164;28;20073;-67
2023/03/07 11:58:24;;;;;;;7.05;1.33;;;;;;;;;;4920837;28;20198;-66
2023/03/07 12:01:50;;;;;;;6.88;1.45;;;;;;;;;;4926870;28;20055;-65
2023/03/07 12:05:00;;;;;;;5.90;1.20;;;;;;;;;;4929691;28;20055;-64
2023/03/07 12:07:38;;;;;;;4.95;1.38;;;;;;;;;;4929562;28;20480;-65
2023/03/07 12:10:35;;;;;;;9.10;1.23;;;;;;;;;;4932798;28;20051;-66
2023/03/07 12:13:16;;;;;;;5.10;1.45;;;;;;;;;;4931986;28;20435;-64
2023/03/07 12:16:03;;;;;;;5.97;1.30;;;;;;;;;;4932675;28;20070;-66
2023/03/07 12:18:52;;;;;;;9.27;1.60;;;;;;;;;;4929756;28;20400;-66
2023/03/07 12:21:36;;;;;;;4.68;1.20;;;;;;;;;;4930028;28;20063;-67
2023/03/07 12:24:17;;;;;;;2.55;0.90;;;;;;;;;;4928942;28;20142;-71
2023/03/07 12:27:02;;;;;;;4.00;1.30;;;;;;;;;;4935496;28;20120;-65
2023/03/07 12:29:42;;;;;;;6.25;1.63;;;;;;;;;;4928358;28;20055;-64
2023/03/07 12:32:15;;;;;;;6.80;1.42;;;;;;;;;;4930092;28;20082;-65
2023/03/07 12:34:53;;;;;;;4.68;1.25;;;;;;;;;;4930886;28;20051;-65
2023/03/07 12:37:43;;;;;;;6.72;1.05;;;;;;;;;;4930101;28;20511;-64
2023/03/07 12:40:13;;;;;;;3.50;1.00;;;;;;;;;;4934300;28;20047;-65
2023/03/07 12:42:51;;;;;;;4.40;0.90;;;;;;;;;;4929904;28;20377;-64
2023/03/07 12:45:26;;;;;;;5.68;2.17;;;;;;;;;;4932180;28;20061;-63
2023/03/07 12:47:52;;;;;;;7.40;1.33;;;;;;;;;;4929205;28;20062;-64
2023/03/07 12:50:33;;;;;;;5.38;1.00;;;;;;;;;;4935245;28;20475;-65
2023/03/07 12:53:02;;;;;;;4.50;1.10;;;;;;;;;;4930383;28;20050;-65
2023/03/07 12:55:54;;;;;;;8.63;1.13;;;;;;;;;;4932463;28;20055;-66
2023/03/07 12:58:46;;;;;;;7.82;1.00;;;;;;;;;;4935089;28;20086;-66
2023/03/07 13:01:20;;;;;;;3.45;1.02;;;;;;;;;;4936808;28;20139;-65
2023/03/07 13:03:52;;;;;;;;;;;;;;;;;;4934154;28;20070;-63
2023/03/07 13:06:20;;;;;;;6.97;1.00;;;;;;;;;;4933578;28;20444;-64
2023/03/07 13:08:59;;;;;;;3.47;0.77;;;;;;;;;;4932006;28;20700;-65
2023/03/07 13:11:28;;;;;;;2.38;1.02;;;;;;;;;;4935099;28;22103;-65
2023/03/07 13:13:58;;;;;;;2.83;1.00;;;;;;;;;;4918484;28;20059;-65
2023/03/07 13:16:43;;;;;;;2.15;0.70;;;;;;;;;;4938443;28;20051;-64
2023/03/07 13:19:51;;;;;;;5.05;1.20;;;;;;;;;;4932394;28;20091;-63
2023/03/07 13:22:18;;;;;;;5.30;1.25;;;;;;;;;;4931155;28;20047;-64
2023/03/07 13:24:49;;;;;;;3.88;1.00;;;;;;;;;;4936558;28;20051;-64
2023/03/07 13:27:29;;;;;;;5.68;1.10;;;;;;;;;;4934926;28;20571;-66
2023/03/07 13:30:10;;;;;;;4.90;1.08;;;;;;;;;;4934189;28;20958;-63
2023/03/07 13:32:51;;;;;;;4.20;0.90;;;;;;;;;;4932878;28;20085;-66
2023/03/07 13:35:23;;;;;;;9.00;1.42;;;;;;;;;;4932005;28;20066;-66
2023/03/07 13:37:58;;;;;;;5.05;1.00;;;;;;;;;;4933022;28;20055;-64
2023/03/07 13:40:34;;;;;;;6.70;1.33;;;;;;;;;;4935958;28;20082;-65
2023/03/07 13:43:02;;;;;;;6.43;0.98;;;;;;;;;;4935120;28;20337;-65
2023/03/07 13:45:40;;;;;;;5.75;1.25;;;;;;;;;;4937759;28;20981;-66
2023/03/07 13:48:39;;;;;;;3.38;1.08;;;;;;;;;;4947307;28;20332;-65
2023/03/07 13:51:08;;;;;;;5.47;1.10;;;;;;;;;;4906422;29;20048;-65
2023/03/07 13:54:06;;;;;;;14.93;1.13;;;;;;;;;;4878761;29;20485;-64
2023/03/07 13:56:42;;;;;;;10.18;1.17;;;;;;;;;;4880417;29;20167;-64
2023/03/07 13:59:13;;;;;;;8.18;1.20;;;;;;;;;;4894444;29;20114;-65
2023/03/07 14:01:47;;;;;;;6.72;1.02;;;;;;;;;;4896109;29;20052;-65
2023/03/07 14:04:31;;;;;;;7.22;1.17;;;;;;;;;;4899585;29;20056;-66
2023/03/07 14:07:33;;;;;;;9.45;1.40;;;;;;;;;;4897177;29;20560;-66
2023/03/07 14:10:22;;;;;;;8.60;1.40;;;;;;;;;;4892634;29;20051;-67
2023/03/07 14:13:13;;;;;;;8.00;1.75;;;;;;;;;;4894662;29;20063;-66
2023/03/07 14:15:53;;;;;;;11.07;1.75;;;;;;;;;;4894659;29;20103;-66
2023/03/07 14:18:25;;;;;;;8.35;1.52;;;;;;;;;;4890262;29;20349;-67
2023/03/07 14:21:26;;;;;;;3.22;1.00;;;;;;;;;;4894804;29;20722;-65
2023/03/07 14:24:35;;;;;;;5.95;1.10;;;;;;;;;;4895729;29;20100;-64
2023/03/07 14:27:13;;;;;;;7.28;1.40;;;;;;;;;;4883742;28;20055;-65
2023/03/07 14:29:48;;;;;;;2.85;1.08;;;;;;;;;;4935109;28;20055;-68
2023/03/07 14:32:25;;;;;;;4.60;0.90;;;;;;;;;;4932610;28;20059;-67
2023/03/07 14:34:52;;;;;;;3.30;1.00;;;;;;;;;;4935228;28;20090;-70
2023/03/07 14:37:23;;;;;;;5.65;1.42;;;;;;;;;;4934840;28;20134;-66
2023/03/07 14:39:58;;;;;;;4.15;1.17;;;;;;;;;;4938658;28;20039;-69
2023/03/07 14:42:39;;;;;;;3.45;1.13;;;;;;;;;;4934453;28;20543;-66
2023/03/07 14:45:20;;;;;;;6.03;1.38;;;;;;;;;;4936037;28;20117;-65
2023/03/07 14:48:16;;;;;;;4.32;1.20;;;;;;;;;;4938210;28;20586;-66
2023/03/07 14:50:43;;;;;;;2.78;0.90;;;;;;;;;;4914526;28;20493;-67
2023/03/07 14:53:23;;;;;;;4.03;1.30;;;;;;;;;;4902312;28;20198;-64
2023/03/07 14:55:52;;;;;;;3.42;1.25;;;;;;;;;;4934705;28;20109;-69
2023/03/07 14:58:23;;;;;;;3.85;1.02;;;;;;;;;;4931903;28;20047;-66
2023/03/07 15:01:10;;;;;;;4.03;1.17;;;;;;;;;;4931318;28;20589;-65
2023/03/07 15:03:45;;;;;;;6.63;1.10;;;;;;;;;;4932056;28;20360;-66
2023/03/07 15:06:15;;;;;;;7.82;1.05;;;;;;;;;;4930030;28;20051;-64
2023/03/07 15:08:41;;;;;;;3.85;1.20;;;;;;;;;;4929463;28;20066;-64
2023/03/07 15:11:29;;;;;;;4.10;0.82;;;;;;;;;;4933037;28;20118;-66
2023/03/07 15:14:05;;;;;;;2.97;1.10;;;;;;;;;;4930617;28;20081;-64
2023/03/07 15:16:38;;;;;;;6.07;1.08;;;;;;;;;;4933188;28;20051;-64
2023/03/07 15:19:29;;;;;;;5.13;0.95;;;;;;;;;;4929200;28;20141;-67
2023/03/07 15:22:03;;;;;;;2.05;0.93;;;;;;;;;;4931341;28;20138;-65
2023/03/07 15:24:31;;;;;;;3.70;1.00;;;;;;;;;;4932686;28;20094;-66
2023/03/07 15:27:00;;;;;;;6.28;1.15;;;;;;;;;;4932171;28;20046;-66
2023/03/07 15:29:29;;;;;;;3.72;0.95;;;;;;;;;;4930270;28;20070;-66
2023/03/07 15:32:05;;;;;;;3.85;0.90;;;;;;;;;;4929305;28;20169;-63
2023/03/07 15:34:36;;;;;;;4.53;0.85;;;;;;;;;;4926497;28;20059;-64
2023/03/07 15:37:25;;;;;;;3.72;0.90;;;;;;;;;;4931547;28;20499;-66
2023/03/07 15:40:09;;;;;;;5.00;1.30;;;;;;;;;;4932456;28;20119;-62
2023/03/07 15:42:49;;;;;;;4.88;1.05;;;;;;;;;;4932653;28;20234;-66
2023/03/07 15:45:31;;;;;;;4.07;0.90;;;;;;;;;;4935747;28;20109;-66
2023/03/07 15:48:08;;;;;;;6.85;0.90;;;;;;;;;;4932807;28;20047;-67
2023/03/07 15:50:36;;;;;;;2.63;1.10;;;;;;;;;;4936191;28;20059;-65
2023/03/07 15:53:09;;;;;;;12.13;1.38;;;;;;;;;;4929034;28;20055;-65
2023/03/07 15:55:38;;;;;;;3.90;0.95;;;;;;;;;;4927522;28;20067;-65
2023/03/07 15:58:13;;;;;;;4.68;1.42;;;;;;;;;;4924960;28;20052;-65
2023/03/07 16:00:40;;;;;;;5.97;1.20;;;;;;;;;;4931834;28;20055;-67
2023/03/07 16:03:22;;;;;;;3.85;0.98;;;;;;;;;;4931141;28;20059;-63
2023/03/07 16:05:48;;;;;;;4.50;1.15;;;;;;;;;;4928619;28;21342;-70
2023/03/07 16:08:16;;;;;;;1.98;0.80;;;;;;;;;;4912026;28;20392;-65
2023/03/07 16:10:48;;;;;;;2.90;0.90;;;;;;;;;;4907902;28;21246;-66
2023/03/07 16:13:17;;;;;;;3.53;1.10;;;;;;;;;;4927749;28;20127;-65
2023/03/07 16:15:43;;;;;;;3.13;1.05;;;;;;;;;;4927660;28;20078;-66
2023/03/07 16:18:19;;;;;;;3.58;0.98;;;;;;;;;;4930169;28;20039;-66
2023/03/07 16:20:45;;;;;;;1.80;0.85;;;;;;;;;;4929658;28;20042;-64
2023/03/07 16:23:51;;;;;;;4.47;1.00;;;;;;;;;;4928818;28;20064;-66
2023/03/07 16:27:35;;;;;;;4.53;1.20;;;;;;;;;;4928325;28;20051;-65
2023/03/07 16:31:15;;;;;;;4.50;1.02;;;;;;;;;;4927063;28;20047;-65
2023/03/07 16:34:55;;;;;;;3.45;1.00;;;;;;;;;;4930962;28;20047;-65
2023/03/07 16:38:35;;;;;;;5.07;1.20;;;;;;;;;;4929651;28;20416;-65
2023/03/07 16:42:17;;;;;;;6.10;0.90;;;;;;;;;;4933359;28;20043;-68
2023/03/07 16:46:04;;;;;;;6.40;1.15;;;;;;;;;;4934330;28;20086;-68
2023/03/07 16:49:49;;;;;;;7.50;1.60;;;;;;;;;;4931885;28;20681;-66
2023/03/07 16:53:28;;;;;;;5.85;1.35;;;;;;;;;;4926620;28;20071;-64
2023/03/07 16:57:10;;;;;;;8.63;1.10;;;;;;;;;;4931898;28;20734;-67
2023/03/07 17:00:59;;;;;;;5.00;1.70;;;;;;;;;;4930438;28;20089;-68
2023/03/07 17:04:39;;;;;;;2.97;1.08;;;;;;;;;;4928208;28;20624;-64
2023/03/07 17:08:20;;;;;;;7.30;2.25;;;;;;;;;;4929147;28;20438;-62
2023/03/07 17:12:06;;;;;;;3.60;1.45;;;;;;;;;;4930739;28;20280;-66
2023/03/07 17:15:47;;;;;;;4.20;1.10;;;;;;;;;;4931450;28;20733;-63
2023/03/07 17:19:27;;;;;;;6.70;1.20;;;;;;;;;;4929314;28;20059;-66
2023/03/07 17:23:07;;;;;;;7.20;1.83;;;;;;;;;;4930062;28;20054;-65
2023/03/07 17:26:48;;;;;;;5.03;1.30;;;;;;;;;;4927100;28;20047;-63
2023/03/07 17:30:28;;;;;;;5.55;1.15;;;;;;;;;;4930616;28;20051;-66
2023/03/07 17:34:08;;;;;;;5.05;1.80;;;;;;;;;;4928681;28;20043;-63
2023/03/07 17:37:49;;;;;;;4.85;1.55;;;;;;;;;;4927410;28;20045;-66
2023/03/07 17:41:32;;;;;;;6.32;1.25;;;;;;;;;;4931111;28;20047;-64
2023/03/07 17:45:14;;;;;;;11.27;1.40;;;;;;;;;;4931870;28;20141;-67
2023/03/07 17:48:54;;;;;;;5.07;1.38;;;;;;;;;;4937130;28;20055;-66
2023/03/07 17:52:35;;;;;;;2.80;1.10;;;;;;;;;;4935910;28;20063;-66
2023/03/07 17:56:16;;;;;;;3.20;1.40;;;;;;;;;;4932874;28;20570;-66
2023/03/07 17:59:56;;;;;;;7.13;1.33;;;;;;;;;;4932721;28;20054;-65
2023/03/07 18:03:37;;;;;;;4.35;1.52;;;;;;;;;;4930610;28;20106;-65
2023/03/07 18:07:18;;;;;;;4.50;1.20;;;;;;;;;;4932031;28;20047;-64
2023/03/07 18:10:57;;;;;;;5.18;1.00;;;;;;;;;;4932651;28;20047;-69
2023/03/07 18:14:38;;;;;;;3.45;1.23;;;;;;;;;;4931923;28;20329;-65
2023/03/07 18:18:19;;;;;;;2.47;1.17;;;;;;;;;;4931692;28;20114;-66
2023/03/07 18:22:00;;;;;;;3.72;1.40;;;;;;;;;;4931584;28;20051;-66
2023/03/07 18:25:40;;;;;;;3.88;1.30;;;;;;;;;;4931075;28;20081;-67
2023/03/07 18:29:20;;;;;;;3.25;1.33;;;;;;;;;;4932491;28;20078;-65
2023/03/07 18:33:03;;;;;;;4.20;1.10;;;;;;;;;;4931800;28;20319;-64
2023/03/07 18:36:43;;;;;;;5.18;1.45;;;;;;;;;;4932642;28;20416;-67
2023/03/07 18:40:25;;;;;;;3.92;1.13;;;;;;;;;;4933803;28;20086;-66
2023/03/07 18:44:06;;;;;;;3.17;1.02;;;;;;;;;;4931003;28;20469;-65